createdAt,value
2022-09-02T00:00:30.568Z,97139.97
2022-09-02T00:01:34.354Z,97137.44
2022-09-02T00:02:36.289Z,97134.44
2022-09-02T00:03:38.272Z,97146.34
2022-09-02T00:04:40.223Z,97138.00
2022-09-02T00:05:42.331Z,97139.16
2022-09-02T00:06:45.663Z,97139.16
2022-09-02T00:07:47.500Z,97138.94
2022-09-02T00:08:49.430Z,97138.94
2022-09-02T00:09:51.235Z,97136.75
2022-09-02T00:10:53.630Z,97143.13
2022-09-02T00:11:56.147Z,97142.56
2022-09-02T00:12:58.149Z,97142.56
2022-09-02T00:14:03.062Z,97135.50
2022-09-02T00:15:05.957Z,97134.44
2022-09-02T00:16:08.591Z,97132.41
2022-09-02T00:17:10.465Z,97127.50
2022-09-02T00:18:15.305Z,97124.88
2022-09-02T00:19:22.266Z,97133.44
2022-09-02T00:20:24.464Z,97126.91
2022-09-02T00:21:27.042Z,97122.31
2022-09-02T00:22:28.875Z,97125.31
2022-09-02T00:23:30.824Z,97130.31
2022-09-02T00:24:32.888Z,97118.31
2022-09-02T00:25:35.645Z,97123.94
2022-09-02T00:26:37.481Z,97117.41
2022-09-02T00:27:39.399Z,97120.50
2022-09-02T00:28:51.093Z,97117.09
2022-09-02T00:29:58.610Z,97127.34
2022-09-02T00:31:00.538Z,97123.69
2022-09-02T00:32:02.368Z,97119.59
2022-09-02T00:33:04.944Z,97114.78
2022-09-02T00:34:07.116Z,97119.00
2022-09-02T00:35:10.367Z,97122.53
2022-09-02T00:36:12.844Z,97121.53
2022-09-02T00:37:14.717Z,97118.28
2022-09-02T00:38:17.341Z,97114.06
2022-09-02T00:39:19.832Z,97118.06
2022-09-02T00:40:23.553Z,97121.06
2022-09-02T00:41:26.856Z,97114.88
2022-09-02T00:42:28.709Z,97122.97
2022-09-02T00:43:42.731Z,97115.78
2022-09-02T00:44:44.591Z,97115.41
2022-09-02T00:45:46.488Z,97116.09
2022-09-02T00:46:48.373Z,97111.63
2022-09-02T00:47:52.856Z,97114.84
2022-09-02T00:48:55.801Z,97114.25
2022-09-02T00:49:58.734Z,97115.06
2022-09-02T00:51:03.688Z,97113.81
2022-09-02T00:52:11.954Z,97111.78
2022-09-02T00:53:14.409Z,97117.81
2022-09-02T00:54:17.150Z,97113.25
2022-09-02T00:55:20.960Z,97108.22
2022-09-02T00:56:25.391Z,97101.13
2022-09-02T00:57:29.681Z,97107.78
2022-09-02T00:58:33.764Z,97105.94
2022-09-02T00:59:54.320Z,97107.53
2022-09-02T01:00:58.049Z,97111.56
2022-09-02T01:02:00.413Z,97111.31
2022-09-02T01:03:04.308Z,97106.31
2022-09-02T01:04:06.745Z,97110.84
2022-09-02T01:05:11.111Z,97108.22
2022-09-02T01:06:15.721Z,97106.94
2022-09-02T01:07:17.526Z,97108.56
2022-09-02T01:08:21.843Z,97111.19
2022-09-02T01:09:23.729Z,97115.88
2022-09-02T01:10:34.659Z,97111.63
2022-09-02T01:11:39.244Z,97106.94
2022-09-02T01:12:41.523Z,97110.63
2022-09-02T01:13:43.781Z,97109.56
2022-09-02T01:14:45.660Z,97107.59
2022-09-02T01:15:49.577Z,97104.03
2022-09-02T01:16:53.559Z,97111.78
2022-09-02T01:17:55.384Z,97110.41
2022-09-02T01:18:59.430Z,97106.53
2022-09-02T01:20:12.139Z,97110.16
2022-09-02T01:21:14.596Z,97112.78
2022-09-02T01:22:17.990Z,97105.97
2022-09-02T01:23:19.915Z,97109.75
2022-09-02T01:24:23.725Z,97108.47
2022-09-02T01:25:28.207Z,97101.97
2022-09-02T01:26:30.084Z,97108.06
2022-09-02T01:27:31.927Z,97113.53
2022-09-02T01:28:33.920Z,97113.03
2022-09-02T01:29:36.032Z,97110.63
2022-09-02T01:30:41.625Z,97118.94
2022-09-02T01:31:43.792Z,97116.69
2022-09-02T01:32:45.726Z,97115.66
2022-09-02T01:33:47.579Z,97115.88
2022-09-02T01:34:49.320Z,97111.63
2022-09-02T01:35:51.551Z,97117.13
2022-09-02T01:36:53.386Z,97113.47
2022-09-02T01:37:56.648Z,97122.16
2022-09-02T01:38:58.662Z,97113.47
2022-09-02T01:40:01.017Z,97115.53
2022-09-02T01:41:02.826Z,97123.97
2022-09-02T01:42:04.830Z,97113.56
2022-09-02T01:43:09.755Z,97116.78
2022-09-02T01:44:12.526Z,97115.53
2022-09-02T01:45:15.545Z,97111.88
2022-09-02T01:46:17.427Z,97119.31
2022-09-02T01:47:24.387Z,97114.63
2022-09-02T01:48:26.462Z,97118.88
2022-09-02T01:49:28.257Z,97115.09
2022-09-02T01:50:31.767Z,97113.09
2022-09-02T01:51:33.594Z,97118.34
2022-09-02T01:52:35.881Z,97116.88
2022-09-02T01:53:37.662Z,97113.03
2022-09-02T01:54:39.991Z,97115.22
2022-09-02T01:55:42.086Z,97114.19
2022-09-02T01:56:43.980Z,97116.25
2022-09-02T01:57:46.106Z,97118.88
2022-09-02T01:58:48.111Z,97113.25
2022-09-02T01:59:49.900Z,97119.31
2022-09-02T02:00:51.959Z,97111.88
2022-09-02T02:01:54.727Z,97114.50
2022-09-02T02:02:57.316Z,97117.56
2022-09-02T02:03:59.406Z,97119.00
2022-09-02T02:05:01.251Z,97115.66
2022-09-02T02:06:07.918Z,97121.34
2022-09-02T02:07:09.724Z,97117.94
2022-09-02T02:08:11.604Z,97116.69
2022-09-02T02:09:13.406Z,97106.75
2022-09-02T02:10:17.704Z,97113.75
2022-09-02T02:11:20.664Z,97111.53
2022-09-02T02:12:22.543Z,97107.63
2022-09-02T02:13:24.486Z,97112.47
2022-09-02T02:14:26.361Z,97107.22
2022-09-02T02:16:29.229Z,97102.88
2022-09-02T02:17:31.089Z,97103.69
2022-09-02T02:18:33.002Z,97109.75
2022-09-02T02:19:35.624Z,97103.69
2022-09-02T02:20:38.247Z,97103.69
2022-09-02T02:21:40.780Z,97099.22
2022-09-02T02:22:43.224Z,97098.19
2022-09-02T02:23:45.139Z,97098.06
2022-09-02T02:24:47.126Z,97098.06
2022-09-02T02:25:48.943Z,97092.03
2022-09-02T02:26:51.067Z,97099.44
2022-09-02T02:27:53.282Z,97098.28
2022-09-02T02:28:55.256Z,97090.88
2022-09-02T02:29:57.477Z,97096.13
2022-09-02T02:31:01.199Z,97092.69
2022-09-02T02:32:03.725Z,97097.13
2022-09-02T02:33:05.591Z,97090.88
2022-09-02T02:34:07.493Z,97091.44
2022-09-02T02:35:09.893Z,97093.50
2022-09-02T02:36:11.765Z,97095.53
2022-09-02T02:37:13.911Z,97088.53
2022-09-02T02:38:16.121Z,97094.78
2022-09-02T02:39:18.146Z,97095.59
2022-09-02T02:40:21.402Z,97097.19
2022-09-02T02:41:23.272Z,97101.06
2022-09-02T02:42:25.041Z,97099.69
2022-09-02T02:43:26.918Z,97101.88
2022-09-02T02:44:29.649Z,97099.69
2022-09-02T02:45:32.186Z,97102.31
2022-09-02T02:46:35.901Z,97097.28
2022-09-02T02:47:39.140Z,97096.25
2022-09-02T02:48:41.050Z,97095.25
2022-09-02T02:49:43.949Z,97099.34
2022-09-02T02:50:45.698Z,97094.66
2022-09-02T02:51:47.638Z,97101.88
2022-09-02T02:52:49.634Z,97099.56
2022-09-02T02:53:53.769Z,97102.75
2022-09-02T02:54:57.601Z,97098.75
2022-09-02T02:56:00.146Z,97100.34
2022-09-02T02:57:03.163Z,97098.53
2022-09-02T02:58:05.771Z,97091.00
2022-09-02T02:59:07.736Z,97098.44
2022-09-02T03:00:12.850Z,97095.81
2022-09-02T03:01:14.677Z,97094.09
2022-09-02T03:02:17.732Z,97086.63
2022-09-02T03:03:19.999Z,97085.63
2022-09-02T03:04:21.892Z,97090.28
2022-09-02T03:05:23.917Z,97089.84
2022-09-02T03:06:26.491Z,97087.59
2022-09-02T03:07:29.057Z,97089.41
2022-09-02T03:08:30.986Z,97089.63
2022-09-02T03:09:32.958Z,97094.09
2022-09-02T03:10:34.856Z,97084.59
2022-09-02T03:11:36.670Z,97082.41
2022-09-02T03:12:39.831Z,97089.69
2022-09-02T03:13:41.649Z,97083.66
2022-09-02T03:14:45.204Z,97089.94
2022-09-02T03:15:47.525Z,97081.38
2022-09-02T03:16:49.287Z,97089.84
2022-09-02T03:17:51.373Z,97086.22
2022-09-02T03:18:53.334Z,97085.63
2022-09-02T03:19:55.165Z,97091.22
2022-09-02T03:20:57.050Z,97086.44
2022-09-02T03:21:59.433Z,97089.06
2022-09-02T03:23:01.454Z,97084.38
2022-09-02T03:24:03.426Z,97089.41
2022-09-02T03:25:06.397Z,97087.38
2022-09-02T03:26:11.410Z,97090.56
2022-09-02T03:27:13.681Z,97090.13
2022-09-02T03:28:15.663Z,97086.91
2022-09-02T03:29:17.486Z,97080.28
2022-09-02T03:30:21.006Z,97083.13
2022-09-02T03:31:24.356Z,97086.53
2022-09-02T03:32:26.411Z,97082.69
2022-09-02T03:33:32.783Z,97078.97
2022-09-02T03:34:34.678Z,97074.97
2022-09-02T03:35:39.754Z,97078.63
2022-09-02T03:36:44.578Z,97079.66
2022-09-02T03:37:48.704Z,97081.69
2022-09-02T03:38:50.668Z,97079.88
2022-09-02T03:39:52.475Z,97082.28
2022-09-02T03:40:54.459Z,97093.56
2022-09-02T03:41:56.425Z,97082.50
2022-09-02T03:43:00.465Z,97082.28
2022-09-02T03:44:03.150Z,97087.53
2022-09-02T03:45:06.695Z,97084.09
2022-09-02T03:46:10.065Z,97081.69
2022-09-02T03:47:14.354Z,97086.38
2022-09-02T03:48:16.141Z,97088.25
2022-09-02T03:49:18.010Z,97080.38
2022-09-02T03:50:40.185Z,97080.38
2022-09-02T03:51:43.378Z,97076.97
2022-09-02T03:52:45.337Z,97079.00
2022-09-02T03:53:47.216Z,97084.47
2022-09-02T03:54:49.244Z,97081.84
2022-09-02T03:55:51.043Z,97082.09
2022-09-02T03:56:52.945Z,97086.19
2022-09-02T03:57:54.894Z,97087.97
2022-09-02T03:58:56.926Z,97086.75
2022-09-02T03:59:58.736Z,97090.19
2022-09-02T04:01:01.342Z,97082.16
2022-09-02T04:02:06.443Z,97082.97
2022-09-02T04:03:08.457Z,97087.75
2022-09-02T04:04:10.286Z,97086.19
2022-09-02T04:05:15.730Z,97083.75
2022-09-02T04:06:20.518Z,97082.97
2022-09-02T04:07:22.273Z,97076.09
2022-09-02T04:08:24.647Z,97075.31
2022-09-02T04:09:26.585Z,97086.22
2022-09-02T04:10:28.903Z,97081.19
2022-09-02T04:11:30.734Z,97085.66
2022-09-02T04:12:32.580Z,97086.09
2022-09-02T04:13:34.805Z,97079.25
2022-09-02T04:14:36.626Z,97078.06
2022-09-02T04:15:48.442Z,97078.88
2022-09-02T04:16:50.364Z,97082.31
2022-09-02T04:17:52.209Z,97077.06
2022-09-02T04:18:54.611Z,97077.06
2022-09-02T04:19:56.446Z,97075.81
2022-09-02T04:21:00.034Z,97080.03
2022-09-02T04:22:01.856Z,97073.41
2022-09-02T04:23:04.388Z,97075.91
2022-09-02T04:24:07.258Z,97073.13
2022-09-02T04:25:10.054Z,97078.94
2022-09-02T04:26:13.626Z,97081.16
2022-09-02T04:27:15.432Z,97074.50
2022-09-02T04:28:17.220Z,97074.75
2022-09-02T04:29:19.300Z,97083.03
2022-09-02T04:30:21.160Z,97076.63
2022-09-02T04:31:25.924Z,97079.25
2022-09-02T04:32:27.819Z,97078.81
2022-09-02T04:33:29.618Z,97078.38
2022-09-02T04:34:31.478Z,97079.97
2022-09-02T04:35:33.337Z,97081.19
2022-09-02T04:36:35.206Z,97075.16
2022-09-02T04:37:37.077Z,97074.44
2022-09-02T04:38:39.032Z,97078.50
2022-09-02T04:39:40.979Z,97082.00
2022-09-02T04:40:44.675Z,97073.91
2022-09-02T04:41:46.537Z,97075.75
2022-09-02T04:42:48.437Z,97078.16
2022-09-02T04:43:50.944Z,97076.13
2022-09-02T04:44:54.882Z,97078.50
2022-09-02T04:45:57.845Z,97074.28
2022-09-02T04:46:59.767Z,97078.16
2022-09-02T04:48:01.695Z,97077.13
2022-09-02T04:49:04.252Z,97079.53
2022-09-02T04:50:06.811Z,97074.66
2022-09-02T04:51:16.925Z,97071.81
2022-09-02T04:52:19.329Z,97076.03
2022-09-02T04:53:21.199Z,97075.81
2022-09-02T04:54:23.117Z,97076.41
2022-09-02T04:55:24.945Z,97077.66
2022-09-02T04:56:28.006Z,97075.25
2022-09-02T04:57:30.083Z,97080.03
2022-09-02T04:58:31.925Z,97077.19
2022-09-02T04:59:36.644Z,97077.66
2022-09-02T05:00:39.778Z,97077.41
2022-09-02T05:01:43.197Z,97077.66
2022-09-02T05:02:45.266Z,97069.34
2022-09-02T05:03:47.976Z,97067.94
2022-09-02T05:04:50.178Z,97073.41
2022-09-02T05:05:59.086Z,97072.25
2022-09-02T05:07:03.830Z,97068.38
2022-09-02T05:08:05.676Z,97073.19
2022-09-02T05:09:08.805Z,97068.53
2022-09-02T05:10:13.088Z,97068.91
2022-09-02T05:11:20.652Z,97070.72
2022-09-02T05:12:22.453Z,97067.88
2022-09-02T05:13:24.886Z,97076.78
2022-09-02T05:14:26.847Z,97072.75
2022-09-02T05:15:32.109Z,97067.06
2022-09-02T05:16:37.116Z,97068.66
2022-09-02T05:17:38.961Z,97066.19
2022-09-02T05:18:40.785Z,97063.94
2022-09-02T05:19:42.665Z,97075.03
2022-09-02T05:20:44.611Z,97066.13
2022-09-02T05:21:47.333Z,97066.50
2022-09-02T05:22:50.943Z,97074.72
2022-09-02T05:23:54.520Z,97074.72
2022-09-02T05:24:57.142Z,97071.91
2022-09-02T05:25:59.054Z,97059.34
2022-09-02T05:27:00.952Z,97063.94
2022-09-02T05:28:02.799Z,97064.72
2022-09-02T05:29:08.767Z,97066.09
2022-09-02T05:30:10.816Z,97060.63
2022-09-02T05:31:14.447Z,97059.25
2022-09-02T05:32:16.461Z,97059.94
2022-09-02T05:33:18.410Z,97061.53
2022-09-02T05:34:20.287Z,97058.09
2022-09-02T05:35:22.189Z,97051.03
2022-09-02T05:36:24.025Z,97058.69
2022-09-02T05:37:26.030Z,97053.88
2022-09-02T05:38:27.930Z,97053.66
2022-09-02T05:39:31.158Z,97048.19
2022-09-02T05:40:34.916Z,97053.44
2022-09-02T05:41:37.107Z,97055.59
2022-09-02T05:42:39.982Z,97057.22
2022-09-02T05:43:42.546Z,97060.22
2022-09-02T05:44:45.360Z,97047.31
2022-09-02T05:45:49.181Z,97052.56
2022-09-02T05:46:51.065Z,97051.81
2022-09-02T05:47:52.964Z,97054.91
2022-09-02T05:49:07.916Z,97057.31
2022-09-02T05:50:10.035Z,97055.91
2022-09-02T05:51:16.085Z,97060.16
2022-09-02T05:52:18.551Z,97055.47
2022-09-02T05:53:20.512Z,97055.47
2022-09-02T05:54:28.930Z,97060.72
2022-09-02T05:55:30.708Z,97060.84
2022-09-02T05:56:32.666Z,97065.22
2022-09-02T05:57:34.417Z,97065.78
2022-09-02T05:58:36.522Z,97060.34
2022-09-02T05:59:40.461Z,97063.53
2022-09-02T06:00:42.303Z,97056.81
2022-09-02T06:01:44.526Z,97059.22
2022-09-02T06:02:46.791Z,97059.66
2022-09-02T06:03:48.893Z,97059.91
2022-09-02T06:04:52.427Z,97060.69
2022-09-02T06:05:55.745Z,97064.78
2022-09-02T06:06:57.629Z,97056.91
2022-09-02T06:07:59.503Z,97056.34
2022-09-02T06:09:01.479Z,97064.22
2022-09-02T06:10:03.338Z,97061.94
2022-09-02T06:11:07.508Z,97057.28
2022-09-02T06:12:09.325Z,97057.28
2022-09-02T06:13:11.863Z,97065.72
2022-09-02T06:14:14.347Z,97062.28
2022-09-02T06:15:16.286Z,97059.22
2022-09-02T06:16:19.892Z,97060.38
2022-09-02T06:17:21.935Z,97058.34
2022-09-02T06:18:24.296Z,97059.50
2022-09-02T06:19:32.888Z,97060.66
2022-09-02T06:20:34.914Z,97059.06
2022-09-02T06:21:37.488Z,97055.41
2022-09-02T06:22:39.451Z,97060.88
2022-09-02T06:23:41.644Z,97061.91
2022-09-02T06:24:43.570Z,97069.56
2022-09-02T06:25:47.202Z,97061.03
2022-09-02T06:26:49.575Z,97063.00
2022-09-02T06:27:51.375Z,97055.69
2022-09-02T06:28:53.264Z,97057.53
2022-09-02T06:29:55.174Z,97054.91
2022-09-02T06:30:58.143Z,97057.88
2022-09-02T06:32:00.041Z,97056.72
2022-09-02T06:33:04.802Z,97055.00
2022-09-02T06:34:06.728Z,97055.13
2022-09-02T06:35:10.137Z,97056.72
2022-09-02T06:36:14.359Z,97055.69
2022-09-02T06:37:16.280Z,97056.28
2022-09-02T06:38:18.274Z,97058.47
2022-09-02T06:39:21.575Z,97061.09
2022-09-02T06:40:23.464Z,97047.72
2022-09-02T06:41:29.940Z,97051.72
2022-09-02T06:42:31.841Z,97055.72
2022-09-02T06:43:42.467Z,97050.25
2022-09-02T06:44:44.662Z,97054.94
2022-09-02T06:45:46.708Z,97064.19
2022-09-02T06:46:54.175Z,97056.53
2022-09-02T06:47:56.431Z,97051.28
2022-09-02T06:48:59.086Z,97050.69
2022-09-02T06:50:00.887Z,97062.81
2022-09-02T06:51:02.872Z,97056.88
2022-09-02T06:52:05.860Z,97054.63
2022-09-02T06:53:09.452Z,97052.00
2022-09-02T06:54:14.212Z,97049.56
2022-09-02T06:55:18.359Z,97048.31
2022-09-02T06:56:20.203Z,97048.91
2022-09-02T06:57:22.046Z,97054.50
2022-09-02T06:58:26.799Z,97054.66
2022-09-02T06:59:28.701Z,97053.59
2022-09-02T07:00:31.976Z,97055.53
2022-09-02T07:01:34.742Z,97049.50
2022-09-02T07:02:37.475Z,97046.28
2022-09-02T07:03:57.666Z,97046.66
2022-09-02T07:05:11.822Z,97047.31
2022-09-02T07:06:13.781Z,97053.97
2022-09-02T07:07:15.938Z,97046.44
2022-09-02T07:08:17.661Z,97046.56
2022-09-02T07:09:20.833Z,97043.69
2022-09-02T07:10:23.391Z,97045.97
2022-09-02T07:11:25.251Z,97048.25
2022-09-02T07:12:27.643Z,97047.59
2022-09-02T07:13:29.538Z,97039.81
2022-09-02T07:14:31.437Z,97042.56
2022-09-02T07:15:33.559Z,97044.50
2022-09-02T07:16:38.105Z,97040.25
2022-09-02T07:17:40.058Z,97041.66
2022-09-02T07:18:42.059Z,97035.13
2022-09-02T07:19:44.870Z,97033.28
2022-09-02T07:20:48.154Z,97039.59
2022-09-02T07:21:50.109Z,97037.97
2022-09-02T07:23:53.906Z,97033.88
2022-09-02T07:24:55.949Z,97031.47
2022-09-02T07:25:57.792Z,97036.63
2022-09-02T07:26:59.586Z,97032.72
2022-09-02T07:28:01.573Z,97035.22
2022-09-02T07:29:04.138Z,97032.72
2022-09-02T07:30:07.038Z,97036.50
2022-09-02T07:31:12.131Z,97030.75
2022-09-02T07:32:14.025Z,97029.50
2022-09-02T07:33:16.471Z,97024.25
2022-09-02T07:34:18.595Z,97031.09
2022-09-02T07:35:20.409Z,97025.75
2022-09-02T07:36:22.158Z,97025.75
2022-09-02T07:37:24.304Z,97020.81
2022-09-02T07:38:26.447Z,97024.00
2022-09-02T07:39:28.220Z,97023.22
2022-09-02T07:40:30.356Z,97019.22
2022-09-02T07:41:32.786Z,97023.59
2022-09-02T07:42:34.622Z,97019.78
2022-09-02T07:43:37.767Z,97017.25
2022-09-02T07:44:39.563Z,97018.94
2022-09-02T07:45:43.644Z,97018.84
2022-09-02T07:46:46.503Z,97020.75
2022-09-02T07:47:49.877Z,97025.31
2022-09-02T07:48:51.836Z,97020.63
2022-09-02T07:51:15.417Z,97019.94
2022-09-02T07:52:17.295Z,97019.94
2022-09-02T07:53:19.621Z,97020.72
2022-09-02T07:54:22.963Z,97020.81
2022-09-02T07:55:25.871Z,97016.94
2022-09-02T07:56:27.728Z,97014.88
2022-09-02T07:57:29.597Z,97012.53
2022-09-02T07:58:32.291Z,97016.78
2022-09-02T07:59:35.181Z,97014.47
2022-09-02T08:00:37.619Z,97011.59
2022-09-02T08:01:39.953Z,97013.31
2022-09-02T08:02:42.010Z,97012.03
2022-09-02T08:03:45.346Z,97013.38
2022-09-02T08:04:47.227Z,97014.19
2022-09-02T08:05:49.217Z,97015.00
2022-09-02T08:06:52.498Z,97015.22
2022-09-02T08:07:54.365Z,97011.88
2022-09-02T08:08:56.239Z,97014.06
2022-09-02T08:10:01.354Z,97006.16
2022-09-02T08:11:04.046Z,97007.72
2022-09-02T08:12:06.422Z,97010.19
2022-09-02T08:13:08.450Z,97004.69
2022-09-02T08:14:12.331Z,97010.28
2022-09-02T08:15:15.152Z,97005.09
2022-09-02T08:16:17.839Z,97005.66
2022-09-02T08:17:20.916Z,96995.22
2022-09-02T08:18:23.217Z,96997.59
2022-09-02T08:19:25.494Z,96999.75
2022-09-02T08:20:28.035Z,97003.28
2022-09-02T08:21:29.909Z,97002.00
2022-09-02T08:22:35.828Z,96997.78
2022-09-02T08:23:37.978Z,97000.72
2022-09-02T08:24:39.970Z,97004.97
2022-09-02T08:25:42.370Z,97004.41
2022-09-02T08:26:44.250Z,97002.34
2022-09-02T08:27:46.643Z,97002.69
2022-09-02T08:28:48.525Z,97001.41
2022-09-02T08:29:50.317Z,97006.69
2022-09-02T08:30:52.926Z,97001.41
2022-09-02T08:31:55.457Z,97000.63
2022-09-02T08:32:57.566Z,96995.66
2022-09-02T08:33:59.934Z,96997.31
2022-09-02T08:35:03.193Z,97000.50
2022-09-02T08:36:06.759Z,96999.66
2022-09-02T08:37:08.616Z,96996.53
2022-09-02T08:38:10.429Z,96992.94
2022-09-02T08:39:12.436Z,96985.81
2022-09-02T08:40:17.290Z,96991.09
2022-09-02T08:41:23.643Z,96984.00
2022-09-02T08:42:25.469Z,96990.72
2022-09-02T08:43:29.567Z,96982.84
2022-09-02T08:44:33.125Z,96982.38
2022-09-02T08:45:39.141Z,96972.97
2022-09-02T08:46:41.485Z,96979.56
2022-09-02T08:47:47.490Z,96976.75
2022-09-02T08:49:08.983Z,96980.03
2022-09-02T08:50:14.319Z,96978.00
2022-09-02T08:51:25.533Z,96973.78
2022-09-02T08:52:43.390Z,96973.22
2022-09-02T08:54:11.299Z,96974.56
2022-09-02T08:55:22.855Z,96970.16
2022-09-02T08:56:26.846Z,96970.22
2022-09-02T08:57:29.055Z,96973.97
2022-09-02T08:58:38.449Z,96970.28
2022-09-02T09:00:51.593Z,96965.56
2022-09-02T09:02:09.791Z,96957.16
2022-09-02T09:03:20.396Z,96966.16
2022-09-02T09:04:25.154Z,96964.16
2022-09-02T09:05:35.656Z,96961.34
2022-09-02T09:06:40.122Z,96957.72
2022-09-02T09:08:00.237Z,96953.84
2022-09-02T09:09:11.027Z,96961.56
2022-09-02T09:10:25.806Z,96948.75
2022-09-02T09:11:40.228Z,96947.69
2022-09-02T09:12:49.949Z,96948.00
2022-09-02T09:14:00.111Z,96945.41
2022-09-02T09:15:12.316Z,96945.44
2022-09-02T09:16:15.952Z,96950.78
2022-09-02T09:17:24.038Z,96942.09
2022-09-02T09:18:38.103Z,96937.13
2022-09-02T09:19:45.909Z,96950.66
2022-09-02T09:20:48.960Z,96945.16
2022-09-02T09:21:50.837Z,96943.38
2022-09-02T09:22:57.152Z,96937.06
2022-09-02T09:24:01.863Z,96945.53
2022-09-02T09:25:07.700Z,96936.03
2022-09-02T09:26:13.959Z,96937.38
2022-09-02T09:27:17.226Z,96933.94
2022-09-02T09:28:19.080Z,96927.09
2022-09-02T09:29:21.291Z,96926.09
2022-09-02T09:30:23.623Z,96925.09
2022-09-02T09:31:31.470Z,96919.81
2022-09-02T09:32:35.313Z,96931.47
2022-09-02T09:33:37.138Z,96923.03
2022-09-02T09:34:54.521Z,96929.41
2022-09-02T09:35:58.928Z,96919.16
2022-09-02T09:37:00.734Z,96928.69
2022-09-02T09:38:12.465Z,96920.81
2022-09-02T09:39:22.158Z,96916.06
2022-09-02T09:40:28.556Z,96918.50
2022-09-02T09:41:30.405Z,96914.28
2022-09-02T09:42:36.567Z,96917.75
2022-09-02T09:43:38.354Z,96914.31
2022-09-02T09:44:47.261Z,96912.50
2022-09-02T09:45:50.286Z,96908.00
2022-09-02T09:47:02.257Z,96911.47
2022-09-02T09:48:31.982Z,96910.72
2022-09-02T09:49:34.173Z,96912.59
2022-09-02T09:50:36.106Z,96913.13
2022-09-02T09:51:49.863Z,96917.66
2022-09-02T09:52:52.282Z,96911.31
2022-09-02T09:54:15.365Z,96912.91
2022-09-02T09:55:24.370Z,96911.59
2022-09-02T09:56:29.526Z,96907.63
2022-09-02T09:57:35.743Z,96901.03
2022-09-02T09:58:39.476Z,96904.44
2022-09-02T09:59:47.574Z,96902.34
2022-09-02T10:00:49.912Z,96891.22
2022-09-02T10:01:52.299Z,96890.94
2022-09-02T10:02:59.096Z,96894.66
2022-09-02T10:04:43.363Z,96892.28
2022-09-02T10:05:45.816Z,96892.28
2022-09-02T10:06:49.188Z,96893.09
2022-09-02T10:07:59.506Z,96893.63
2022-09-02T10:09:02.929Z,96888.03
2022-09-02T10:10:24.006Z,96892.25
2022-09-02T10:11:27.161Z,96884.84
2022-09-02T10:12:33.940Z,96886.16
2022-09-02T10:13:37.121Z,96875.81
2022-09-02T10:14:46.207Z,96882.69
2022-09-02T10:16:08.296Z,96880.53
2022-09-02T10:17:17.020Z,96877.31
2022-09-02T10:18:31.455Z,96877.81
2022-09-02T10:20:11.780Z,96874.88
2022-09-02T10:21:22.508Z,96873.53
2022-09-02T10:22:44.715Z,96876.16
2022-09-02T10:24:11.326Z,96877.72
2022-09-02T10:25:28.880Z,96876.63
2022-09-02T10:26:38.238Z,96872.34
2022-09-02T10:27:40.015Z,96871.25
2022-09-02T10:28:41.799Z,96864.81
2022-09-02T10:29:51.497Z,96869.03
2022-09-02T10:31:17.372Z,96869.28
2022-09-02T10:32:25.903Z,96878.28
2022-09-02T10:33:36.635Z,96870.50
2022-09-02T10:34:44.472Z,96869.94
2022-09-02T10:35:47.488Z,96866.22
2022-09-02T10:37:07.888Z,96869.38
2022-09-02T10:38:19.743Z,96858.75
2022-09-02T10:39:47.759Z,96852.34
2022-09-02T10:40:53.223Z,96860.53
2022-09-02T10:41:59.378Z,96864.44
2022-09-02T10:43:01.218Z,96856.44
2022-09-02T10:44:03.175Z,96851.84
2022-09-02T10:45:24.611Z,96851.16
2022-09-02T10:46:27.241Z,96852.75
2022-09-02T10:47:39.197Z,96850.81
2022-09-02T10:48:46.907Z,96855.84
2022-09-02T10:50:07.020Z,96850.97
2022-09-02T10:51:17.798Z,96853.59
2022-09-02T10:52:40.833Z,96851.63
2022-09-02T10:53:48.495Z,96849.19
2022-09-02T10:55:06.993Z,96858.19
2022-09-02T10:56:11.751Z,96841.13
2022-09-02T10:57:22.870Z,96842.38
2022-09-02T10:58:30.757Z,96852.22
2022-09-02T10:59:40.376Z,96851.69
2022-09-02T11:00:45.197Z,96838.06
2022-09-02T11:01:49.179Z,96846.22
2022-09-02T11:03:08.425Z,96834.50
2022-09-02T11:04:28.270Z,96843.78
2022-09-02T11:05:49.762Z,96838.09
2022-09-02T11:07:02.518Z,96832.22
2022-09-02T11:08:10.287Z,96840.34
2022-09-02T11:09:24.264Z,96831.50
2022-09-02T11:10:31.478Z,96834.13
2022-09-02T11:11:57.138Z,96833.84
2022-09-02T11:13:05.217Z,96834.34
2022-09-02T11:14:07.664Z,96829.28
2022-09-02T11:15:17.894Z,96832.69
2022-09-02T11:16:38.563Z,96832.38
2022-09-02T11:17:53.096Z,96829.66
2022-09-02T11:19:03.901Z,96826.63
2022-09-02T11:20:13.123Z,96833.69
2022-09-02T11:21:15.132Z,96836.00
2022-09-02T11:22:28.589Z,96831.19
2022-09-02T11:23:46.964Z,96831.34
2022-09-02T11:24:52.881Z,96828.09
2022-09-02T11:26:01.846Z,96829.59
2022-09-02T11:27:25.912Z,96830.69
2022-09-02T11:28:42.351Z,96830.31
2022-09-02T11:30:04.384Z,96828.34
2022-09-02T11:31:10.542Z,96834.47
2022-09-02T11:32:18.472Z,96829.94
2022-09-02T11:33:29.416Z,96821.34
2022-09-02T11:34:35.879Z,96818.59
2022-09-02T11:35:39.649Z,96821.25
2022-09-02T11:36:42.186Z,96817.13
2022-09-02T11:38:07.236Z,96817.28
2022-09-02T11:39:21.873Z,96815.50
2022-09-02T11:40:38.917Z,96812.28
2022-09-02T11:41:56.436Z,96824.75
2022-09-02T11:42:58.422Z,96815.94
2022-09-02T11:44:12.925Z,96824.44
2022-09-02T11:45:20.596Z,96817.50
2022-09-02T11:46:39.974Z,96813.28
2022-09-02T11:48:04.828Z,96806.44
2022-09-02T11:49:25.913Z,96808.53
2022-09-02T11:50:33.662Z,96808.94
2022-09-02T11:51:52.810Z,96804.47
2022-09-02T11:52:54.649Z,96804.78
2022-09-02T11:53:57.601Z,96810.31
2022-09-02T11:55:06.545Z,96813.69
2022-09-02T11:56:08.482Z,96813.19
2022-09-02T11:57:14.366Z,96799.06
2022-09-02T11:58:31.482Z,96806.88
2022-09-02T11:59:51.741Z,96808.56
2022-09-02T12:01:01.051Z,96800.06
2022-09-02T12:02:03.078Z,96798.75
2022-09-02T12:03:16.760Z,96799.66
2022-09-02T12:05:51.756Z,96794.00
2022-09-02T12:07:08.693Z,96799.34
2022-09-02T12:08:16.565Z,96798.34
2022-09-02T12:09:38.364Z,96800.16
2022-09-02T12:10:47.939Z,96797.78
2022-09-02T12:11:51.078Z,96797.09
2022-09-02T12:12:56.145Z,96796.78
2022-09-02T12:14:00.864Z,96794.91
2022-09-02T12:15:06.885Z,96796.50
2022-09-02T12:16:24.282Z,96796.88
2022-09-02T12:17:45.783Z,96791.13
2022-09-02T12:18:58.534Z,96797.97
2022-09-02T12:20:00.717Z,96790.31
2022-09-02T12:21:07.805Z,96786.56
2022-09-02T12:22:15.997Z,96793.81
2022-09-02T12:23:37.095Z,96779.13
2022-09-02T12:24:54.355Z,96792.06
2022-09-02T12:26:03.023Z,96782.38
2022-09-02T12:27:06.409Z,96779.56
2022-09-02T12:28:19.114Z,96773.16
2022-09-02T12:29:24.354Z,96777.38
2022-09-02T12:30:45.631Z,96776.63
2022-09-02T12:31:49.413Z,96778.41
2022-09-02T12:32:51.315Z,96786.03
2022-09-02T12:33:53.866Z,96772.22
2022-09-02T12:34:56.914Z,96780.44
2022-09-02T12:35:59.975Z,96773.00
2022-09-02T12:37:02.947Z,96783.69
2022-09-02T12:38:10.964Z,96776.94
2022-09-02T12:39:27.737Z,96777.94
2022-09-02T12:40:32.928Z,96770.88
2022-09-02T12:41:42.809Z,96774.75
2022-09-02T12:42:46.677Z,96771.34
2022-09-02T12:43:58.126Z,96767.38
2022-09-02T12:44:59.890Z,96761.00
2022-09-02T12:46:24.570Z,96768.59
2022-09-02T12:47:31.307Z,96769.84
2022-09-02T12:48:45.710Z,96766.59
2022-09-02T12:49:50.038Z,96760.75
2022-09-02T12:50:58.842Z,96762.31